sensor_id;sensor_type;location;lat;lon;timestamp;P1;durP1;ratioP1;P2;durP2;ratioP2
54408;SDS011;40315;48.620;9.828;2024-03-23T00:52:22;7.22;;;5.40;;
54408;SDS011;40315;48.620;9.828;2024-03-23T00:54:49;7.05;;;5.13;;
54408;SDS011;40315;48.620;9.828;2024-03-23T00:57:18;6.63;;;4.82;;
54408;SDS011;40315;48.620;9.828;2024-03-23T00:59:47;6.43;;;4.35;;
54408;SDS011;40315;48.620;9.828;2024-03-23T01:02:13;5.75;;;4.60;;
54408;SDS011;40315;48.620;9.828;2024-03-23T01:04:40;5.25;;;4.75;;
54408;SDS011;40315;48.620;9.828;2024-03-23T01:07:06;6.57;;;4.90;;
54408;SDS011;40315;48.620;9.828;2024-03-23T01:09:37;6.82;;;5.00;;
54408;SDS011;40315;48.620;9.828;2024-03-23T01:12:06;6.72;;;4.35;;
54408;SDS011;40315;48.620;9.828;2024-03-23T01:14:33;5.22;;;4.35;;
54408;SDS011;40315;48.620;9.828;2024-03-23T01:17:00;6.18;;;4.53;;
54408;SDS011;40315;48.620;9.828;2024-03-23T01:19:27;7.00;;;4.22;;
54408;SDS011;40315;48.620;9.828;2024-03-23T01:21:53;5.03;;;3.83;;
54408;SDS011;40315;48.620;9.828;2024-03-23T01:24:22;6.68;;;3.63;;
54408;SDS011;40315;48.620;9.828;2024-03-23T01:26:50;4.22;;;3.53;;
54408;SDS011;40315;48.620;9.828;2024-03-23T01:29:16;6.20;;;3.67;;
54408;SDS011;40315;48.620;9.828;2024-03-23T01:31:42;8.05;;;4.15;;
54408;SDS011;40315;48.620;9.828;2024-03-23T01:34:11;4.10;;;3.38;;
54408;SDS011;40315;48.620;9.828;2024-03-23T01:36:37;7.00;;;3.10;;
54408;SDS011;40315;48.620;9.828;2024-03-23T01:39:07;4.90;;;3.00;;
54408;SDS011;40315;48.620;9.828;2024-03-23T01:41:34;5.00;;;3.45;;
54408;SDS011;40315;48.620;9.828;2024-03-23T01:44:05;4.32;;;3.60;;
54408;SDS011;40315;48.620;9.828;2024-03-23T01:46:34;3.63;;;2.83;;
54408;SDS011;40315;48.620;9.828;2024-03-23T01:49:02;4.18;;;3.30;;
54408;SDS011;40315;48.620;9.828;2024-03-23T01:51:30;4.13;;;2.80;;
54408;SDS011;40315;48.620;9.828;2024-03-23T01:53:58;4.05;;;2.65;;
54408;SDS011;40315;48.620;9.828;2024-03-23T01:56:28;2.58;;;2.38;;
54408;SDS011;40315;48.620;9.828;2024-03-23T01:58:57;3.60;;;2.72;;
54408;SDS011;40315;48.620;9.828;2024-03-23T02:01:27;4.35;;;2.85;;
54408;SDS011;40315;48.620;9.828;2024-03-23T02:03:56;2.67;;;2.42;;
54408;SDS011;40315;48.620;9.828;2024-03-23T02:06:22;5.15;;;3.15;;
54408;SDS011;40315;48.620;9.828;2024-03-23T02:08:51;4.05;;;3.47;;
54408;SDS011;40315;48.620;9.828;2024-03-23T02:11:17;4.45;;;3.40;;
54408;SDS011;40315;48.620;9.828;2024-03-23T02:13:44;4.45;;;2.60;;
54408;SDS011;40315;48.620;9.828;2024-03-23T02:16:10;3.63;;;2.60;;
54408;SDS011;40315;48.620;9.828;2024-03-23T02:18:39;4.45;;;2.40;;
54408;SDS011;40315;48.620;9.828;2024-03-23T02:21:07;3.35;;;2.85;;
54408;SDS011;40315;48.620;9.828;2024-03-23T02:23:36;3.58;;;2.60;;
54408;SDS011;40315;48.620;9.828;2024-03-23T02:26:03;3.78;;;2.80;;
54408;SDS011;40315;48.620;9.828;2024-03-23T02:28:29;3.47;;;2.50;;
54408;SDS011;40315;48.620;9.828;2024-03-23T02:30:56;3.95;;;2.50;;
54408;SDS011;40315;48.620;9.828;2024-03-23T02:33:26;4.00;;;2.67;;
54408;SDS011;40315;48.620;9.828;2024-03-23T02:35:55;2.75;;;2.38;;
54408;SDS011;40315;48.620;9.828;2024-03-23T02:38:24;3.38;;;2.40;;
54408;SDS011;40315;48.620;9.828;2024-03-23T02:40:54;4.13;;;2.35;;
54408;SDS011;40315;48.620;9.828;2024-03-23T02:43:21;3.35;;;2.63;;
54408;SDS011;40315;48.620;9.828;2024-03-23T02:45:47;2.67;;;2.47;;
54408;SDS011;40315;48.620;9.828;2024-03-23T02:48:14;3.70;;;2.53;;
54408;SDS011;40315;48.620;9.828;2024-03-23T02:50:42;3.28;;;2.33;;
54408;SDS011;40315;48.620;9.828;2024-03-23T02:53:12;2.45;;;2.25;;
54408;SDS011;40315;48.620;9.828;2024-03-23T02:55:38;3.20;;;2.22;;
54408;SDS011;40315;48.620;9.828;2024-03-23T02:58:10;3.75;;;2.55;;
54408;SDS011;40315;48.620;9.828;2024-03-23T03:00:39;3.35;;;2.45;;
54408;SDS011;40315;48.620;9.828;2024-03-23T03:03:08;3.85;;;2.50;;
54408;SDS011;40315;48.620;9.828;2024-03-23T03:05:36;2.97;;;2.17;;
54408;SDS011;40315;48.620;9.828;2024-03-23T03:08:04;4.07;;;2.38;;
54408;SDS011;40315;48.620;9.828;2024-03-23T03:10:30;4.07;;;2.50;;
54408;SDS011;40315;48.620;9.828;2024-03-23T03:13:02;2.50;;;2.15;;
54408;SDS011;40315;48.620;9.828;2024-03-23T03:15:29;3.15;;;2.33;;
54408;SDS011;40315;48.620;9.828;2024-03-23T03:17:59;3.63;;;2.65;;
54408;SDS011;40315;48.620;9.828;2024-03-23T03:20:25;4.70;;;2.80;;
54408;SDS011;40315;48.620;9.828;2024-03-23T03:22:52;2.60;;;2.30;;
54408;SDS011;40315;48.620;9.828;2024-03-23T03:25:19;2.85;;;2.17;;
54408;SDS011;40315;48.620;9.828;2024-03-23T03:27:45;3.47;;;2.50;;
54408;SDS011;40315;48.620;9.828;2024-03-23T03:30:12;2.83;;;2.50;;
54408;SDS011;40315;48.620;9.828;2024-03-23T03:32:40;3.55;;;2.20;;
54408;SDS011;40315;48.620;9.828;2024-03-23T03:35:06;3.45;;;2.25;;
54408;SDS011;40315;48.620;9.828;2024-03-23T03:37:33;5.82;;;2.47;;
54408;SDS011;40315;48.620;9.828;2024-03-23T03:39:59;3.15;;;2.03;;
54408;SDS011;40315;48.620;9.828;2024-03-23T03:42:26;4.53;;;2.38;;
54408;SDS011;40315;48.620;9.828;2024-03-23T03:44:52;2.72;;;2.05;;
54408;SDS011;40315;48.620;9.828;2024-03-23T03:47:21;3.33;;;2.30;;
54408;SDS011;40315;48.620;9.828;2024-03-23T03:49:49;4.35;;;2.38;;
54408;SDS011;40315;48.620;9.828;2024-03-23T03:52:18;5.25;;;2.40;;
54408;SDS011;40315;48.620;9.828;2024-03-23T03:54:44;3.45;;;2.10;;
54408;SDS011;40315;48.620;9.828;2024-03-23T03:57:11;3.92;;;2.42;;
54408;SDS011;40315;48.620;9.828;2024-03-23T03:59:39;2.75;;;2.05;;
54408;SDS011;40315;48.620;9.828;2024-03-23T04:02:06;2.78;;;2.38;;
54408;SDS011;40315;48.620;9.828;2024-03-23T04:04:32;2.85;;;2.50;;
54408;SDS011;40315;48.620;9.828;2024-03-23T04:07:01;3.22;;;2.30;;
54408;SDS011;40315;48.620;9.828;2024-03-23T04:09:29;2.88;;;2.30;;
54408;SDS011;40315;48.620;9.828;2024-03-23T04:11:56;2.47;;;2.10;;
54408;SDS011;40315;48.620;9.828;2024-03-23T04:14:22;3.47;;;2.30;;
54408;SDS011;40315;48.620;9.828;2024-03-23T04:16:52;4.47;;;2.45;;
54408;SDS011;40315;48.620;9.828;2024-03-23T04:19:17;3.55;;;2.35;;
54408;SDS011;40315;48.620;9.828;2024-03-23T04:21:45;3.28;;;2.42;;
54408;SDS011;40315;48.620;9.828;2024-03-23T04:24:14;4.28;;;2.88;;
54408;SDS011;40315;48.620;9.828;2024-03-23T04:26:44;3.47;;;2.58;;
54408;SDS011;40315;48.620;9.828;2024-03-23T04:29:11;3.38;;;2.28;;
54408;SDS011;40315;48.620;9.828;2024-03-23T04:31:38;4.50;;;2.75;;
54408;SDS011;40315;48.620;9.828;2024-03-23T04:34:04;3.58;;;2.47;;
54408;SDS011;40315;48.620;9.828;2024-03-23T04:36:31;5.10;;;2.72;;
54408;SDS011;40315;48.620;9.828;2024-03-23T04:38:58;4.65;;;2.45;;
54408;SDS011;40315;48.620;9.828;2024-03-23T04:41:29;3.78;;;2.72;;
54408;SDS011;40315;48.620;9.828;2024-03-23T04:43:56;4.72;;;2.50;;
54408;SDS011;40315;48.620;9.828;2024-03-23T04:46:26;2.70;;;2.45;;
54408;SDS011;40315;48.620;9.828;2024-03-23T04:48:52;3.47;;;2.95;;
54408;SDS011;40315;48.620;9.828;2024-03-23T04:51:22;3.70;;;2.70;;
54408;SDS011;40315;48.620;9.828;2024-03-23T04:53:51;3.28;;;2.78;;
54408;SDS011;40315;48.620;9.828;2024-03-23T04:56:19;3.63;;;2.60;;
54408;SDS011;40315;48.620;9.828;2024-03-23T04:58:47;5.50;;;3.38;;
54408;SDS011;40315;48.620;9.828;2024-03-23T05:01:13;5.60;;;2.60;;
54408;SDS011;40315;48.620;9.828;2024-03-23T05:03:40;4.18;;;2.40;;
54408;SDS011;40315;48.620;9.828;2024-03-23T05:06:06;6.40;;;3.03;;
54408;SDS011;40315;48.620;9.828;2024-03-23T05:08:33;3.88;;;2.75;;
54408;SDS011;40315;48.620;9.828;2024-03-23T05:10:59;3.63;;;3.05;;
54408;SDS011;40315;48.620;9.828;2024-03-23T05:13:26;8.45;;;2.70;;
54408;SDS011;40315;48.620;9.828;2024-03-23T05:15:54;3.28;;;2.88;;
54408;SDS011;40315;48.620;9.828;2024-03-23T05:18:22;5.50;;;3.05;;
54408;SDS011;40315;48.620;9.828;2024-03-23T05:20:55;5.07;;;2.90;;
54408;SDS011;40315;48.620;9.828;2024-03-23T05:23:26;4.93;;;2.42;;
54408;SDS011;40315;48.620;9.828;2024-03-23T05:25:56;4.40;;;2.78;;
54408;SDS011;40315;48.620;9.828;2024-03-23T05:28:22;5.60;;;3.00;;
54408;SDS011;40315;48.620;9.828;2024-03-23T05:30:50;4.15;;;2.60;;
54408;SDS011;40315;48.620;9.828;2024-03-23T05:33:17;3.75;;;2.97;;
54408;SDS011;40315;48.620;9.828;2024-03-23T05:35:44;5.18;;;3.08;;
54408;SDS011;40315;48.620;9.828;2024-03-23T05:38:13;4.38;;;3.15;;
54408;SDS011;40315;48.620;9.828;2024-03-23T05:40:40;6.85;;;3.10;;
54408;SDS011;40315;48.620;9.828;2024-03-23T05:43:06;3.92;;;3.03;;
54408;SDS011;40315;48.620;9.828;2024-03-23T05:45:34;3.70;;;3.30;;
54408;SDS011;40315;48.620;9.828;2024-03-23T05:48:00;6.25;;;3.70;;
54408;SDS011;40315;48.620;9.828;2024-03-23T05:50:28;4.50;;;4.00;;
54408;SDS011;40315;48.620;9.828;2024-03-23T05:52:55;6.03;;;4.53;;
54408;SDS011;40315;48.620;9.828;2024-03-23T05:55:22;7.72;;;5.63;;
54408;SDS011;40315;48.620;9.828;2024-03-23T05:57:48;8.93;;;6.03;;
54408;SDS011;40315;48.620;9.828;2024-03-23T06:00:17;8.73;;;6.22;;
54408;SDS011;40315;48.620;9.828;2024-03-23T06:02:43;10.52;;;7.55;;
54408;SDS011;40315;48.620;9.828;2024-03-23T06:05:10;10.18;;;7.82;;
54408;SDS011;40315;48.620;9.828;2024-03-23T06:07:37;10.38;;;7.80;;
54408;SDS011;40315;48.620;9.828;2024-03-23T06:10:05;12.40;;;9.15;;
54408;SDS011;40315;48.620;9.828;2024-03-23T06:12:34;11.38;;;9.15;;
54408;SDS011;40315;48.620;9.828;2024-03-23T06:15:01;13.05;;;9.30;;
54408;SDS011;40315;48.620;9.828;2024-03-23T06:17:27;12.55;;;9.18;;
54408;SDS011;40315;48.620;9.828;2024-03-23T06:19:56;11.98;;;9.32;;
54408;SDS011;40315;48.620;9.828;2024-03-23T06:22:22;10.88;;;8.65;;
54408;SDS011;40315;48.620;9.828;2024-03-23T06:24:50;13.50;;;10.13;;
54408;SDS011;40315;48.620;9.828;2024-03-23T06:27:16;11.77;;;7.25;;
54408;SDS011;40315;48.620;9.828;2024-03-23T06:29:44;9.43;;;7.35;;
54408;SDS011;40315;48.620;9.828;2024-03-23T06:32:10;8.68;;;6.78;;
54408;SDS011;40315;48.620;9.828;2024-03-23T06:34:37;11.48;;;8.68;;
54408;SDS011;40315;48.620;9.828;2024-03-23T06:37:03;12.82;;;9.63;;
54408;SDS011;40315;48.620;9.828;2024-03-23T06:39:33;14.77;;;9.77;;
54408;SDS011;40315;48.620;9.828;2024-03-23T06:42:00;15.23;;;11.07;;
54408;SDS011;40315;48.620;9.828;2024-03-23T06:44:27;12.93;;;8.70;;
54408;SDS011;40315;48.620;9.828;2024-03-23T06:46:54;11.68;;;7.90;;
54408;SDS011;40315;48.620;9.828;2024-03-23T06:49:20;10.73;;;7.10;;
54408;SDS011;40315;48.620;9.828;2024-03-23T06:51:47;11.95;;;7.55;;
54408;SDS011;40315;48.620;9.828;2024-03-23T06:54:13;11.38;;;6.60;;
54408;SDS011;40315;48.620;9.828;2024-03-23T06:56:43;9.88;;;7.38;;
54408;SDS011;40315;48.620;9.828;2024-03-23T06:59:13;8.68;;;6.47;;
54408;SDS011;40315;48.620;9.828;2024-03-23T07:01:40;9.20;;;6.07;;
54408;SDS011;40315;48.620;9.828;2024-03-23T07:04:09;7.55;;;5.28;;
54408;SDS011;40315;48.620;9.828;2024-03-23T07:06:41;6.53;;;4.80;;
54408;SDS011;40315;48.620;9.828;2024-03-23T07:09:08;5.85;;;4.20;;
54408;SDS011;40315;48.620;9.828;2024-03-23T07:11:35;5.05;;;3.80;;
54408;SDS011;40315;48.620;9.828;2024-03-23T07:14:01;4.18;;;3.30;;
54408;SDS011;40315;48.620;9.828;2024-03-23T07:16:32;3.80;;;2.78;;
54408;SDS011;40315;48.620;9.828;2024-03-23T07:19:01;2.92;;;1.98;;
54408;SDS011;40315;48.620;9.828;2024-03-23T07:21:27;2.83;;;1.80;;
54408;SDS011;40315;48.620;9.828;2024-03-23T07:23:54;2.40;;;1.70;;
54408;SDS011;40315;48.620;9.828;2024-03-23T07:26:23;1.52;;;1.23;;
54408;SDS011;40315;48.620;9.828;2024-03-23T07:28:49;1.75;;;1.45;;
54408;SDS011;40315;48.620;9.828;2024-03-23T07:31:16;2.45;;;1.77;;
54408;SDS011;40315;48.620;9.828;2024-03-23T07:33:44;1.65;;;1.40;;
54408;SDS011;40315;48.620;9.828;2024-03-23T07:36:12;1.45;;;1.35;;
54408;SDS011;40315;48.620;9.828;2024-03-23T07:38:41;2.33;;;1.17;;
54408;SDS011;40315;48.620;9.828;2024-03-23T07:41:10;1.50;;;0.90;;
54408;SDS011;40315;48.620;9.828;2024-03-23T07:43:39;0.80;;;0.80;;
54408;SDS011;40315;48.620;9.828;2024-03-23T07:46:06;0.93;;;0.80;;
54408;SDS011;40315;48.620;9.828;2024-03-23T07:48:35;1.65;;;0.80;;
54408;SDS011;40315;48.620;9.828;2024-03-23T07:51:06;1.67;;;0.93;;
54408;SDS011;40315;48.620;9.828;2024-03-23T07:53:36;0.50;;;0.50;;
54408;SDS011;40315;48.620;9.828;2024-03-23T07:56:05;0.60;;;0.60;;
54408;SDS011;40315;48.620;9.828;2024-03-23T07:58:32;0.50;;;0.50;;
54408;SDS011;40315;48.620;9.828;2024-03-23T08:01:05;1.40;;;0.70;;
54408;SDS011;40315;48.620;9.828;2024-03-23T08:03:33;2.97;;;0.50;;
54408;SDS011;40315;48.620;9.828;2024-03-23T08:06:09;1.00;;;0.90;;
54408;SDS011;40315;48.620;9.828;2024-03-23T08:08:38;0.40;;;0.40;;
54408;SDS011;40315;48.620;9.828;2024-03-23T08:11:05;0.95;;;0.60;;
54408;SDS011;40315;48.620;9.828;2024-03-23T08:13:32;1.13;;;0.70;;
54408;SDS011;40315;48.620;9.828;2024-03-23T08:15:59;0.73;;;0.50;;
54408;SDS011;40315;48.620;9.828;2024-03-23T08:18:26;1.13;;;0.50;;
54408;SDS011;40315;48.620;9.828;2024-03-23T08:20:56;1.35;;;0.60;;
54408;SDS011;40315;48.620;9.828;2024-03-23T08:23:27;1.20;;;0.63;;
54408;SDS011;40315;48.620;9.828;2024-03-23T08:25:57;0.55;;;0.40;;
54408;SDS011;40315;48.620;9.828;2024-03-23T08:28:23;0.65;;;0.50;;
54408;SDS011;40315;48.620;9.828;2024-03-23T08:30:53;0.50;;;0.50;;
54408;SDS011;40315;48.620;9.828;2024-03-23T08:33:19;0.60;;;0.50;;
54408;SDS011;40315;48.620;9.828;2024-03-23T08:35:52;0.82;;;0.40;;
54408;SDS011;40315;48.620;9.828;2024-03-23T08:38:21;2.55;;;0.80;;
54408;SDS011;40315;48.620;9.828;2024-03-23T08:40:57;0.70;;;0.55;;
54408;SDS011;40315;48.620;9.828;2024-03-23T08:43:24;1.33;;;0.80;;
54408;SDS011;40315;48.620;9.828;2024-03-23T08:45:51;0.60;;;0.40;;
54408;SDS011;40315;48.620;9.828;2024-03-23T08:48:18;0.73;;;0.32;;
54408;SDS011;40315;48.620;9.828;2024-03-23T08:50:47;2.35;;;0.52;;
54408;SDS011;40315;48.620;9.828;2024-03-23T08:53:23;1.80;;;1.02;;
54408;SDS011;40315;48.620;9.828;2024-03-23T08:55:53;0.40;;;0.40;;
54408;SDS011;40315;48.620;9.828;2024-03-23T08:58:20;1.42;;;1.00;;
54408;SDS011;40315;48.620;9.828;2024-03-23T09:00:51;1.65;;;1.00;;
54408;SDS011;40315;48.620;9.828;2024-03-23T09:03:18;0.40;;;0.40;;
54408;SDS011;40315;48.620;9.828;2024-03-23T09:05:45;0.60;;;0.60;;
54408;SDS011;40315;48.620;9.828;2024-03-23T09:08:11;0.60;;;0.60;;
54408;SDS011;40315;48.620;9.828;2024-03-23T09:10:38;1.13;;;1.00;;
54408;SDS011;40315;48.620;9.828;2024-03-23T09:13:08;2.55;;;1.02;;
54408;SDS011;40315;48.620;9.828;2024-03-23T09:15:46;1.23;;;1.13;;
54408;SDS011;40315;48.620;9.828;2024-03-23T09:18:13;1.25;;;1.13;;
54408;SDS011;40315;48.620;9.828;2024-03-23T09:20:40;1.27;;;1.17;;
54408;SDS011;40315;48.620;9.828;2024-03-23T09:23:06;1.15;;;0.98;;
54408;SDS011;40315;48.620;9.828;2024-03-23T09:25:35;2.30;;;2.05;;
54408;SDS011;40315;48.620;9.828;2024-03-23T09:28:02;1.73;;;1.08;;
54408;SDS011;40315;48.620;9.828;2024-03-23T09:30:30;2.33;;;1.10;;
54408;SDS011;40315;48.620;9.828;2024-03-23T09:32:59;3.15;;;1.40;;
54408;SDS011;40315;48.620;9.828;2024-03-23T09:35:26;1.48;;;1.10;;
54408;SDS011;40315;48.620;9.828;2024-03-23T09:37:55;3.92;;;1.48;;
54408;SDS011;40315;48.620;9.828;2024-03-23T09:40:25;2.97;;;1.50;;
54408;SDS011;40315;48.620;9.828;2024-03-23T09:42:52;3.70;;;1.35;;
54408;SDS011;40315;48.620;9.828;2024-03-23T09:45:21;2.65;;;1.40;;
54408;SDS011;40315;48.620;9.828;2024-03-23T09:47:47;2.38;;;1.50;;
54408;SDS011;40315;48.620;9.828;2024-03-23T09:50:18;2.30;;;1.50;;
54408;SDS011;40315;48.620;9.828;2024-03-23T09:52:45;2.30;;;1.55;;
54408;SDS011;40315;48.620;9.828;2024-03-23T09:55:12;4.72;;;1.98;;
54408;SDS011;40315;48.620;9.828;2024-03-23T09:57:39;6.43;;;2.17;;
54408;SDS011;40315;48.620;9.828;2024-03-23T10:00:07;4.93;;;2.28;;
54408;SDS011;40315;48.620;9.828;2024-03-23T10:02:34;4.80;;;2.60;;
54408;SDS011;40315;48.620;9.828;2024-03-23T10:05:04;8.40;;;2.63;;
54408;SDS011;40315;48.620;9.828;2024-03-23T10:07:49;4.85;;;2.38;;
54408;SDS011;40315;48.620;9.828;2024-03-23T10:10:16;3.95;;;2.33;;
54408;SDS011;40315;48.620;9.828;2024-03-23T10:12:46;5.80;;;3.83;;
54408;SDS011;40315;48.620;9.828;2024-03-23T10:15:18;4.13;;;2.20;;
54408;SDS011;40315;48.620;9.828;2024-03-23T10:17:46;4.35;;;2.30;;
54408;SDS011;40315;48.620;9.828;2024-03-23T10:20:19;5.18;;;2.10;;
54408;SDS011;40315;48.620;9.828;2024-03-23T10:22:49;5.30;;;2.45;;
54408;SDS011;40315;48.620;9.828;2024-03-23T10:25:23;6.25;;;2.40;;
54408;SDS011;40315;48.620;9.828;2024-03-23T10:27:57;3.53;;;2.42;;
54408;SDS011;40315;48.620;9.828;2024-03-23T10:30:27;5.53;;;2.33;;
54408;SDS011;40315;48.620;9.828;2024-03-23T10:33:06;4.03;;;2.65;;
54408;SDS011;40315;48.620;9.828;2024-03-23T10:35:33;4.10;;;2.38;;
54408;SDS011;40315;48.620;9.828;2024-03-23T10:38:06;5.70;;;3.33;;
54408;SDS011;40315;48.620;9.828;2024-03-23T10:40:33;5.70;;;3.30;;
54408;SDS011;40315;48.620;9.828;2024-03-23T10:43:02;6.05;;;3.80;;
54408;SDS011;40315;48.620;9.828;2024-03-23T10:45:29;6.38;;;2.95;;
54408;SDS011;40315;48.620;9.828;2024-03-23T10:47:57;5.22;;;2.78;;
54408;SDS011;40315;48.620;9.828;2024-03-23T10:50:23;6.93;;;3.00;;
54408;SDS011;40315;48.620;9.828;2024-03-23T10:52:50;6.50;;;2.83;;
54408;SDS011;40315;48.620;9.828;2024-03-23T10:55:22;4.05;;;3.08;;
54408;SDS011;40315;48.620;9.828;2024-03-23T10:57:53;4.38;;;2.58;;
54408;SDS011;40315;48.620;9.828;2024-03-23T11:00:21;5.07;;;2.92;;
54408;SDS011;40315;48.620;9.828;2024-03-23T11:02:48;6.47;;;2.80;;
54408;SDS011;40315;48.620;9.828;2024-03-23T11:05:27;6.25;;;2.40;;
54408;SDS011;40315;48.620;9.828;2024-03-23T11:07:58;5.28;;;2.67;;
54408;SDS011;40315;48.620;9.828;2024-03-23T11:10:26;5.30;;;2.60;;
54408;SDS011;40315;48.620;9.828;2024-03-23T11:12:54;6.07;;;2.80;;
54408;SDS011;40315;48.620;9.828;2024-03-23T11:15:21;4.80;;;2.60;;
54408;SDS011;40315;48.620;9.828;2024-03-23T11:18:04;5.82;;;2.40;;
54408;SDS011;40315;48.620;9.828;2024-03-23T11:20:33;5.43;;;2.40;;
54408;SDS011;40315;48.620;9.828;2024-03-23T11:23:01;5.38;;;2.65;;
54408;SDS011;40315;48.620;9.828;2024-03-23T11:25:29;4.93;;;3.00;;
54408;SDS011;40315;48.620;9.828;2024-03-23T11:27:56;8.70;;;2.90;;
54408;SDS011;40315;48.620;9.828;2024-03-23T11:30:23;9.30;;;3.00;;
54408;SDS011;40315;48.620;9.828;2024-03-23T11:32:51;5.45;;;3.03;;
54408;SDS011;40315;48.620;9.828;2024-03-23T11:35:25;4.95;;;2.70;;
54408;SDS011;40315;48.620;9.828;2024-03-23T11:38:03;6.15;;;2.65;;
54408;SDS011;40315;48.620;9.828;2024-03-23T11:40:34;5.50;;;2.80;;
54408;SDS011;40315;48.620;9.828;2024-03-23T11:43:03;6.95;;;2.75;;
54408;SDS011;40315;48.620;9.828;2024-03-23T11:45:36;6.85;;;3.20;;
54408;SDS011;40315;48.620;9.828;2024-03-23T11:48:07;3.05;;;2.10;;
54408;SDS011;40315;48.620;9.828;2024-03-23T11:50:36;6.68;;;2.88;;
54408;SDS011;40315;48.620;9.828;2024-03-23T11:53:08;3.75;;;2.40;;
54408;SDS011;40315;48.620;9.828;2024-03-23T11:55:45;4.75;;;2.72;;
54408;SDS011;40315;48.620;9.828;2024-03-23T11:58:14;3.83;;;2.50;;
54408;SDS011;40315;48.620;9.828;2024-03-23T12:00:41;4.85;;;2.05;;
54408;SDS011;40315;48.620;9.828;2024-03-23T12:03:08;2.50;;;1.63;;
54408;SDS011;40315;48.620;9.828;2024-03-23T12:05:36;3.13;;;2.13;;
54408;SDS011;40315;48.620;9.828;2024-03-23T12:08:17;4.13;;;2.22;;
54408;SDS011;40315;48.620;9.828;2024-03-23T12:10:49;5.13;;;2.20;;
54408;SDS011;40315;48.620;9.828;2024-03-23T12:13:18;5.00;;;2.45;;
54408;SDS011;40315;48.620;9.828;2024-03-23T12:15:47;3.38;;;2.60;;
54408;SDS011;40315;48.620;9.828;2024-03-23T12:18:23;3.28;;;2.33;;
54408;SDS011;40315;48.620;9.828;2024-03-23T12:20:50;3.97;;;2.50;;
54408;SDS011;40315;48.620;9.828;2024-03-23T12:23:18;4.88;;;2.60;;
54408;SDS011;40315;48.620;9.828;2024-03-23T12:25:46;3.08;;;2.55;;
54408;SDS011;40315;48.620;9.828;2024-03-23T12:28:17;2.10;;;1.90;;
54408;SDS011;40315;48.620;9.828;2024-03-23T12:30:43;3.17;;;2.33;;
54408;SDS011;40315;48.620;9.828;2024-03-23T12:33:10;4.20;;;2.22;;
54408;SDS011;40315;48.620;9.828;2024-03-23T12:35:37;4.03;;;2.38;;
54408;SDS011;40315;48.620;9.828;2024-03-23T12:38:04;1.95;;;1.73;;
54408;SDS011;40315;48.620;9.828;2024-03-23T12:40:32;3.10;;;1.70;;
54408;SDS011;40315;48.620;9.828;2024-03-23T12:43:01;2.53;;;1.40;;
54408;SDS011;40315;48.620;9.828;2024-03-23T12:45:26;3.53;;;1.60;;
54408;SDS011;40315;48.620;9.828;2024-03-23T12:47:56;2.92;;;1.50;;
54408;SDS011;40315;48.620;9.828;2024-03-23T12:50:22;4.35;;;1.58;;
54408;SDS011;40315;48.620;9.828;2024-03-23T12:52:51;2.72;;;1.50;;
54408;SDS011;40315;48.620;9.828;2024-03-23T12:55:19;3.72;;;1.38;;
54408;SDS011;40315;48.620;9.828;2024-03-23T12:57:49;5.22;;;1.08;;
54408;SDS011;40315;48.620;9.828;2024-03-23T13:00:16;4.18;;;1.42;;
54408;SDS011;40315;48.620;9.828;2024-03-23T13:02:44;2.97;;;1.17;;
54408;SDS011;40315;48.620;9.828;2024-03-23T13:05:13;2.42;;;1.20;;
54408;SDS011;40315;48.620;9.828;2024-03-23T13:07:42;4.50;;;1.45;;
54408;SDS011;40315;48.620;9.828;2024-03-23T13:10:08;3.80;;;1.35;;
54408;SDS011;40315;48.620;9.828;2024-03-23T13:12:35;3.38;;;1.20;;
54408;SDS011;40315;48.620;9.828;2024-03-23T13:15:02;3.67;;;1.55;;
54408;SDS011;40315;48.620;9.828;2024-03-23T13:17:30;7.07;;;2.22;;
54408;SDS011;40315;48.620;9.828;2024-03-23T13:19:57;3.03;;;1.20;;
54408;SDS011;40315;48.620;9.828;2024-03-23T13:22:24;4.70;;;1.63;;
54408;SDS011;40315;48.620;9.828;2024-03-23T13:24:50;3.97;;;1.55;;
54408;SDS011;40315;48.620;9.828;2024-03-23T13:27:17;4.38;;;2.25;;
54408;SDS011;40315;48.620;9.828;2024-03-23T13:29:44;5.65;;;2.60;;
54408;SDS011;40315;48.620;9.828;2024-03-23T13:32:11;4.07;;;1.60;;
54408;SDS011;40315;48.620;9.828;2024-03-23T13:34:39;3.45;;;1.40;;
54408;SDS011;40315;48.620;9.828;2024-03-23T13:37:06;5.82;;;1.70;;
54408;SDS011;40315;48.620;9.828;2024-03-23T13:39:32;3.90;;;1.48;;
54408;SDS011;40315;48.620;9.828;2024-03-23T13:42:00;3.00;;;1.30;;
54408;SDS011;40315;48.620;9.828;2024-03-23T13:44:29;5.00;;;1.60;;
54408;SDS011;40315;48.620;9.828;2024-03-23T13:46:57;6.75;;;1.90;;
54408;SDS011;40315;48.620;9.828;2024-03-23T13:49:27;6.13;;;2.15;;
54408;SDS011;40315;48.620;9.828;2024-03-23T13:51:55;4.18;;;1.60;;
54408;SDS011;40315;48.620;9.828;2024-03-23T13:54:25;8.07;;;1.63;;
54408;SDS011;40315;48.620;9.828;2024-03-23T13:56:53;6.60;;;1.73;;
54408;SDS011;40315;48.620;9.828;2024-03-23T13:59:21;7.55;;;2.20;;
54408;SDS011;40315;48.620;9.828;2024-03-23T14:01:48;5.40;;;1.92;;
54408;SDS011;40315;48.620;9.828;2024-03-23T14:04:18;4.78;;;2.10;;
54408;SDS011;40315;48.620;9.828;2024-03-23T14:06:45;4.75;;;1.75;;
54408;SDS011;40315;48.620;9.828;2024-03-23T14:09:14;5.95;;;1.83;;
54408;SDS011;40315;48.620;9.828;2024-03-23T14:11:40;3.10;;;1.70;;
54408;SDS011;40315;48.620;9.828;2024-03-23T14:14:08;4.45;;;1.73;;
54408;SDS011;40315;48.620;9.828;2024-03-23T14:16:36;2.85;;;1.20;;
54408;SDS011;40315;48.620;9.828;2024-03-23T14:19:04;4.13;;;1.58;;
54408;SDS011;40315;48.620;9.828;2024-03-23T14:21:31;3.65;;;1.50;;
54408;SDS011;40315;48.620;9.828;2024-03-23T14:23:59;2.97;;;1.33;;
54408;SDS011;40315;48.620;9.828;2024-03-23T14:26:27;2.63;;;1.83;;
54408;SDS011;40315;48.620;9.828;2024-03-23T14:28:54;3.55;;;1.40;;
54408;SDS011;40315;48.620;9.828;2024-03-23T14:31:20;4.25;;;1.50;;
54408;SDS011;40315;48.620;9.828;2024-03-23T14:33:49;3.50;;;1.30;;
54408;SDS011;40315;48.620;9.828;2024-03-23T14:36:15;2.05;;;1.30;;
54408;SDS011;40315;48.620;9.828;2024-03-23T14:38:46;2.83;;;1.10;;
54408;SDS011;40315;48.620;9.828;2024-03-23T14:41:13;1.88;;;1.17;;
54408;SDS011;40315;48.620;9.828;2024-03-23T14:43:41;3.35;;;1.30;;
54408;SDS011;40315;48.620;9.828;2024-03-23T14:46:11;2.50;;;1.33;;
54408;SDS011;40315;48.620;9.828;2024-03-23T14:48:39;5.95;;;2.70;;
54408;SDS011;40315;48.620;9.828;2024-03-23T14:51:07;2.08;;;1.23;;
54408;SDS011;40315;48.620;9.828;2024-03-23T14:53:36;3.15;;;1.25;;
54408;SDS011;40315;48.620;9.828;2024-03-23T14:56:04;2.53;;;1.27;;
54408;SDS011;40315;48.620;9.828;2024-03-23T14:58:35;3.65;;;1.77;;
54408;SDS011;40315;48.620;9.828;2024-03-23T15:01:03;5.40;;;2.38;;
54408;SDS011;40315;48.620;9.828;2024-03-23T15:03:36;2.50;;;1.77;;
54408;SDS011;40315;48.620;9.828;2024-03-23T15:06:04;2.65;;;1.75;;
54408;SDS011;40315;48.620;9.828;2024-03-23T15:08:32;5.13;;;2.33;;
54408;SDS011;40315;48.620;9.828;2024-03-23T15:10:59;3.08;;;1.95;;
54408;SDS011;40315;48.620;9.828;2024-03-23T15:13:30;3.60;;;1.20;;
54408;SDS011;40315;48.620;9.828;2024-03-23T15:15:58;1.73;;;1.02;;
54408;SDS011;40315;48.620;9.828;2024-03-23T15:18:26;3.28;;;1.30;;
54408;SDS011;40315;48.620;9.828;2024-03-23T15:20:56;2.85;;;1.10;;
54408;SDS011;40315;48.620;9.828;2024-03-23T15:23:27;4.30;;;1.33;;
54408;SDS011;40315;48.620;9.828;2024-03-23T15:25:56;3.30;;;1.30;;
54408;SDS011;40315;48.620;9.828;2024-03-23T15:28:25;3.70;;;1.20;;
54408;SDS011;40315;48.620;9.828;2024-03-23T15:31:05;6.53;;;3.05;;
54408;SDS011;40315;48.620;9.828;2024-03-23T15:33:33;9.23;;;2.90;;
54408;SDS011;40315;48.620;9.828;2024-03-23T15:36:02;3.97;;;1.65;;
54408;SDS011;40315;48.620;9.828;2024-03-23T15:38:32;5.38;;;1.83;;
54408;SDS011;40315;48.620;9.828;2024-03-23T15:40:59;3.85;;;2.05;;
54408;SDS011;40315;48.620;9.828;2024-03-23T15:43:26;3.42;;;1.38;;
54408;SDS011;40315;48.620;9.828;2024-03-23T15:45:55;4.00;;;1.48;;